Terminal Aerodrome Forecast
Issued by NWS Grand Rapids, MI

Home | Current Version | Previous Version | Text Only | Print | Product List | Glossary On
Versions: 1 2 3 4 5 6 7 8 9 10 11 12 13 14 15 16
854
FTUS43 KGRR 211352 AAB
TAFGRR
TAF AMD
KGRR 211352Z 2114/2212 19007KT 4SM -RA BR OVC035
     FM211515 20010KT 4SM -RA BR OVC015
     FM211630 21010KT 4SM -SHRA BR OVC007
     FM211800 25007KT P6SM OVC015
     FM212000 26007KT P6SM SCT250
     FM220800 21008KT 3SM BR SCT010=

USA.gov is the U.S. government's official web portal to all federal, state and local government web resources and services.